sensor_id;sensor_type;location;lat;lon;timestamp;temperature;humidity
14349;DHT22;7258;50.376;8.742;2023-06-10T00:00:41;18.10;99.90
14349;DHT22;7258;50.376;8.742;2023-06-10T00:02:45;18.10;99.90
14349;DHT22;7258;50.376;8.742;2023-06-10T00:04:48;18.10;99.90
14349;DHT22;7258;50.376;8.742;2023-06-10T00:06:51;18.00;99.90
14349;DHT22;7258;50.376;8.742;2023-06-10T00:08:55;18.00;99.90
14349;DHT22;7258;50.376;8.742;2023-06-10T00:10:58;18.00;99.90
14349;DHT22;7258;50.376;8.742;2023-06-10T00:13:02;18.00;99.90
14349;DHT22;7258;50.376;8.742;2023-06-10T00:15:06;18.00;99.90
14349;DHT22;7258;50.376;8.742;2023-06-10T00:17:10;18.00;99.90
14349;DHT22;7258;50.376;8.742;2023-06-10T00:19:14;17.90;99.90
14349;DHT22;7258;50.376;8.742;2023-06-10T00:21:18;17.90;99.90
14349;DHT22;7258;50.376;8.742;2023-06-10T00:23:21;17.90;99.90
14349;DHT22;7258;50.376;8.742;2023-06-10T00:25:26;17.90;99.90
14349;DHT22;7258;50.376;8.742;2023-06-10T00:27:31;17.80;99.90
14349;DHT22;7258;50.376;8.742;2023-06-10T00:29:37;17.80;99.90
14349;DHT22;7258;50.376;8.742;2023-06-10T00:31:40;17.70;99.90
14349;DHT22;7258;50.376;8.742;2023-06-10T00:33:43;17.70;99.90
14349;DHT22;7258;50.376;8.742;2023-06-10T00:35:51;17.70;99.90
14349;DHT22;7258;50.376;8.742;2023-06-10T00:37:54;17.60;99.90
14349;DHT22;7258;50.376;8.742;2023-06-10T00:39:57;17.60;99.90
14349;DHT22;7258;50.376;8.742;2023-06-10T00:42:02;17.60;99.90
14349;DHT22;7258;50.376;8.742;2023-06-10T00:44:08;17.50;99.90
14349;DHT22;7258;50.376;8.742;2023-06-10T00:46:12;17.50;99.90
14349;DHT22;7258;50.376;8.742;2023-06-10T00:48:16;17.40;99.90
14349;DHT22;7258;50.376;8.742;2023-06-10T00:50:19;17.40;99.90
14349;DHT22;7258;50.376;8.742;2023-06-10T00:52:27;17.40;99.90
14349;DHT22;7258;50.376;8.742;2023-06-10T00:54:30;17.30;99.90
14349;DHT22;7258;50.376;8.742;2023-06-10T00:56:35;17.20;99.90
14349;DHT22;7258;50.376;8.742;2023-06-10T00:58:39;17.20;99.90
14349;DHT22;7258;50.376;8.742;2023-06-10T01:00:42;17.10;99.90
14349;DHT22;7258;50.376;8.742;2023-06-10T01:02:48;17.00;99.90
14349;DHT22;7258;50.376;8.742;2023-06-10T01:04:51;17.00;99.90
14349;DHT22;7258;50.376;8.742;2023-06-10T01:07:00;17.00;99.90
14349;DHT22;7258;50.376;8.742;2023-06-10T01:09:13;16.90;99.90
14349;DHT22;7258;50.376;8.742;2023-06-10T01:11:21;16.80;99.90
14349;DHT22;7258;50.376;8.742;2023-06-10T01:13:25;16.80;99.90
14349;DHT22;7258;50.376;8.742;2023-06-10T01:15:30;16.80;99.90
14349;DHT22;7258;50.376;8.742;2023-06-10T01:17:33;16.70;99.90
14349;DHT22;7258;50.376;8.742;2023-06-10T01:19:38;16.70;99.90
14349;DHT22;7258;50.376;8.742;2023-06-10T01:21:43;16.70;99.90
14349;DHT22;7258;50.376;8.742;2023-06-10T01:23:51;16.70;99.90
14349;DHT22;7258;50.376;8.742;2023-06-10T01:25:58;16.60;99.90
14349;DHT22;7258;50.376;8.742;2023-06-10T01:28:08;16.60;99.90
14349;DHT22;7258;50.376;8.742;2023-06-10T01:30:15;16.60;99.90
14349;DHT22;7258;50.376;8.742;2023-06-10T01:32:32;16.60;99.90
14349;DHT22;7258;50.376;8.742;2023-06-10T01:34:37;16.60;99.90
14349;DHT22;7258;50.376;8.742;2023-06-10T01:36:46;16.50;99.90
14349;DHT22;7258;50.376;8.742;2023-06-10T01:38:50;16.50;99.90
14349;DHT22;7258;50.376;8.742;2023-06-10T01:40:55;16.40;99.90
14349;DHT22;7258;50.376;8.742;2023-06-10T01:42:59;16.40;99.90
14349;DHT22;7258;50.376;8.742;2023-06-10T01:45:02;16.40;99.90
14349;DHT22;7258;50.376;8.742;2023-06-10T01:47:05;16.40;99.90
14349;DHT22;7258;50.376;8.742;2023-06-10T01:49:08;16.40;99.90
14349;DHT22;7258;50.376;8.742;2023-06-10T01:51:11;16.40;99.90
14349;DHT22;7258;50.376;8.742;2023-06-10T01:53:15;16.40;99.90
14349;DHT22;7258;50.376;8.742;2023-06-10T01:55:18;16.40;99.90
14349;DHT22;7258;50.376;8.742;2023-06-10T01:57:21;16.40;99.90
14349;DHT22;7258;50.376;8.742;2023-06-10T01:59:24;16.40;99.90
14349;DHT22;7258;50.376;8.742;2023-06-10T02:01:28;16.40;99.90
14349;DHT22;7258;50.376;8.742;2023-06-10T02:03:31;16.40;99.90
14349;DHT22;7258;50.376;8.742;2023-06-10T02:05:34;16.40;99.90
14349;DHT22;7258;50.376;8.742;2023-06-10T02:07:37;16.30;99.90
14349;DHT22;7258;50.376;8.742;2023-06-10T02:09:44;16.30;99.90
14349;DHT22;7258;50.376;8.742;2023-06-10T02:11:47;16.30;99.90
14349;DHT22;7258;50.376;8.742;2023-06-10T02:13:50;16.30;99.90
14349;DHT22;7258;50.376;8.742;2023-06-10T02:15:53;16.30;99.90
14349;DHT22;7258;50.376;8.742;2023-06-10T02:17:56;16.30;99.90
14349;DHT22;7258;50.376;8.742;2023-06-10T02:19:59;16.30;99.90
14349;DHT22;7258;50.376;8.742;2023-06-10T02:22:05;16.20;99.90
14349;DHT22;7258;50.376;8.742;2023-06-10T02:24:08;16.20;99.90
14349;DHT22;7258;50.376;8.742;2023-06-10T02:26:13;16.10;99.90
14349;DHT22;7258;50.376;8.742;2023-06-10T02:28:16;16.10;99.90
14349;DHT22;7258;50.376;8.742;2023-06-10T02:30:19;16.10;99.90
14349;DHT22;7258;50.376;8.742;2023-06-10T02:32:22;16.00;99.90
14349;DHT22;7258;50.376;8.742;2023-06-10T02:34:25;16.00;99.90
14349;DHT22;7258;50.376;8.742;2023-06-10T02:36:29;16.00;99.90
14349;DHT22;7258;50.376;8.742;2023-06-10T02:38:32;16.00;99.90
14349;DHT22;7258;50.376;8.742;2023-06-10T02:40:34;16.00;99.90
14349;DHT22;7258;50.376;8.742;2023-06-10T02:42:39;16.00;99.90
14349;DHT22;7258;50.376;8.742;2023-06-10T02:44:42;16.10;99.90
14349;DHT22;7258;50.376;8.742;2023-06-10T02:46:44;16.10;99.90
14349;DHT22;7258;50.376;8.742;2023-06-10T02:48:47;16.10;99.90
14349;DHT22;7258;50.376;8.742;2023-06-10T02:50:53;16.10;99.90
14349;DHT22;7258;50.376;8.742;2023-06-10T02:52:57;16.10;99.90
14349;DHT22;7258;50.376;8.742;2023-06-10T02:55:00;16.10;99.90
14349;DHT22;7258;50.376;8.742;2023-06-10T02:57:03;16.00;99.90
14349;DHT22;7258;50.376;8.742;2023-06-10T02:59:08;16.00;99.90
14349;DHT22;7258;50.376;8.742;2023-06-10T03:01:11;16.00;99.90
14349;DHT22;7258;50.376;8.742;2023-06-10T03:03:14;15.90;99.90
14349;DHT22;7258;50.376;8.742;2023-06-10T03:05:18;15.90;99.90
14349;DHT22;7258;50.376;8.742;2023-06-10T03:07:21;15.80;99.90
14349;DHT22;7258;50.376;8.742;2023-06-10T03:09:25;15.80;99.90
14349;DHT22;7258;50.376;8.742;2023-06-10T03:11:28;15.70;99.90
14349;DHT22;7258;50.376;8.742;2023-06-10T03:13:32;15.70;99.90
14349;DHT22;7258;50.376;8.742;2023-06-10T03:15:37;15.70;99.90
14349;DHT22;7258;50.376;8.742;2023-06-10T03:17:42;15.60;99.90
14349;DHT22;7258;50.376;8.742;2023-06-10T03:19:45;15.60;99.90
14349;DHT22;7258;50.376;8.742;2023-06-10T03:22:07;15.60;99.90
14349;DHT22;7258;50.376;8.742;2023-06-10T03:24:10;15.60;99.90
14349;DHT22;7258;50.376;8.742;2023-06-10T03:26:14;15.60;99.90
14349;DHT22;7258;50.376;8.742;2023-06-10T03:28:17;15.70;99.90
14349;DHT22;7258;50.376;8.742;2023-06-10T03:30:21;15.70;99.90
14349;DHT22;7258;50.376;8.742;2023-06-10T03:32:25;15.70;99.90
14349;DHT22;7258;50.376;8.742;2023-06-10T03:34:28;15.70;99.90
14349;DHT22;7258;50.376;8.742;2023-06-10T03:36:32;15.70;99.90
14349;DHT22;7258;50.376;8.742;2023-06-10T03:38:35;15.70;99.90
14349;DHT22;7258;50.376;8.742;2023-06-10T03:40:38;15.70;99.90
14349;DHT22;7258;50.376;8.742;2023-06-10T03:42:43;15.80;99.90
14349;DHT22;7258;50.376;8.742;2023-06-10T03:44:46;15.80;99.90
14349;DHT22;7258;50.376;8.742;2023-06-10T03:46:50;15.80;99.90
14349;DHT22;7258;50.376;8.742;2023-06-10T03:48:55;15.80;99.90
14349;DHT22;7258;50.376;8.742;2023-06-10T03:50:59;15.80;99.90
14349;DHT22;7258;50.376;8.742;2023-06-10T03:53:02;15.90;99.90
14349;DHT22;7258;50.376;8.742;2023-06-10T03:55:06;15.90;99.90
14349;DHT22;7258;50.376;8.742;2023-06-10T03:57:11;15.90;99.90
14349;DHT22;7258;50.376;8.742;2023-06-10T03:59:14;15.90;99.90
14349;DHT22;7258;50.376;8.742;2023-06-10T04:01:17;15.90;99.90
14349;DHT22;7258;50.376;8.742;2023-06-10T04:03:24;16.00;99.90
14349;DHT22;7258;50.376;8.742;2023-06-10T04:05:29;16.00;99.90
14349;DHT22;7258;50.376;8.742;2023-06-10T04:07:32;16.10;99.90
14349;DHT22;7258;50.376;8.742;2023-06-10T04:09:36;16.10;99.90
14349;DHT22;7258;50.376;8.742;2023-06-10T04:11:42;16.10;99.90
14349;DHT22;7258;50.376;8.742;2023-06-10T04:13:47;16.10;99.90
14349;DHT22;7258;50.376;8.742;2023-06-10T04:15:51;16.10;99.90
14349;DHT22;7258;50.376;8.742;2023-06-10T04:17:56;16.20;99.90
14349;DHT22;7258;50.376;8.742;2023-06-10T04:19:59;16.30;99.90
14349;DHT22;7258;50.376;8.742;2023-06-10T04:22:04;16.30;99.90
14349;DHT22;7258;50.376;8.742;2023-06-10T04:24:10;16.30;99.90
14349;DHT22;7258;50.376;8.742;2023-06-10T04:26:14;16.40;99.90
14349;DHT22;7258;50.376;8.742;2023-06-10T04:28:17;16.40;99.90
14349;DHT22;7258;50.376;8.742;2023-06-10T04:30:20;16.50;99.90
14349;DHT22;7258;50.376;8.742;2023-06-10T04:32:23;16.50;99.90
14349;DHT22;7258;50.376;8.742;2023-06-10T04:34:36;16.60;99.90
14349;DHT22;7258;50.376;8.742;2023-06-10T04:36:41;16.70;99.90
14349;DHT22;7258;50.376;8.742;2023-06-10T04:38:45;16.70;99.90
14349;DHT22;7258;50.376;8.742;2023-06-10T04:40:48;16.80;99.90
14349;DHT22;7258;50.376;8.742;2023-06-10T04:42:51;16.80;99.90
14349;DHT22;7258;50.376;8.742;2023-06-10T04:44:54;16.90;99.90
14349;DHT22;7258;50.376;8.742;2023-06-10T04:46:57;17.00;99.90
14349;DHT22;7258;50.376;8.742;2023-06-10T04:49:00;17.10;99.90
14349;DHT22;7258;50.376;8.742;2023-06-10T04:51:03;17.10;99.90
14349;DHT22;7258;50.376;8.742;2023-06-10T04:53:07;17.20;99.90
14349;DHT22;7258;50.376;8.742;2023-06-10T04:55:11;17.30;99.90
14349;DHT22;7258;50.376;8.742;2023-06-10T04:57:14;17.30;99.90
14349;DHT22;7258;50.376;8.742;2023-06-10T04:59:17;17.30;99.90
14349;DHT22;7258;50.376;8.742;2023-06-10T05:01:20;17.40;99.90
14349;DHT22;7258;50.376;8.742;2023-06-10T05:03:23;17.50;99.90
14349;DHT22;7258;50.376;8.742;2023-06-10T05:05:26;17.50;99.90
14349;DHT22;7258;50.376;8.742;2023-06-10T05:07:28;17.60;99.90
14349;DHT22;7258;50.376;8.742;2023-06-10T05:09:31;17.60;99.90
14349;DHT22;7258;50.376;8.742;2023-06-10T05:11:35;17.60;99.90
14349;DHT22;7258;50.376;8.742;2023-06-10T05:13:41;17.70;99.90
14349;DHT22;7258;50.376;8.742;2023-06-10T05:15:45;17.70;99.90
14349;DHT22;7258;50.376;8.742;2023-06-10T05:17:48;17.70;99.90
14349;DHT22;7258;50.376;8.742;2023-06-10T05:19:52;17.70;99.90
14349;DHT22;7258;50.376;8.742;2023-06-10T05:21:55;17.80;99.90
14349;DHT22;7258;50.376;8.742;2023-06-10T05:23:57;17.90;99.90
14349;DHT22;7258;50.376;8.742;2023-06-10T05:26:01;17.90;99.90
14349;DHT22;7258;50.376;8.742;2023-06-10T05:28:05;18.00;99.90
14349;DHT22;7258;50.376;8.742;2023-06-10T05:30:15;18.10;99.90
14349;DHT22;7258;50.376;8.742;2023-06-10T05:32:20;18.20;99.90
14349;DHT22;7258;50.376;8.742;2023-06-10T05:34:23;18.30;99.90
14349;DHT22;7258;50.376;8.742;2023-06-10T05:36:26;18.40;99.90
14349;DHT22;7258;50.376;8.742;2023-06-10T05:38:29;18.60;99.90
14349;DHT22;7258;50.376;8.742;2023-06-10T05:40:32;18.60;99.90
14349;DHT22;7258;50.376;8.742;2023-06-10T05:42:35;18.70;99.90
14349;DHT22;7258;50.376;8.742;2023-06-10T05:44:39;18.80;99.90
14349;DHT22;7258;50.376;8.742;2023-06-10T05:46:42;18.90;99.90
14349;DHT22;7258;50.376;8.742;2023-06-10T05:48:45;19.00;99.90
14349;DHT22;7258;50.376;8.742;2023-06-10T05:50:48;19.10;99.90
14349;DHT22;7258;50.376;8.742;2023-06-10T05:52:51;19.20;99.90
14349;DHT22;7258;50.376;8.742;2023-06-10T05:54:55;19.30;99.90
14349;DHT22;7258;50.376;8.742;2023-06-10T05:56:58;19.40;99.90
14349;DHT22;7258;50.376;8.742;2023-06-10T05:59:01;19.40;99.90
14349;DHT22;7258;50.376;8.742;2023-06-10T06:01:05;19.40;99.90
14349;DHT22;7258;50.376;8.742;2023-06-10T06:03:08;19.40;99.90
14349;DHT22;7258;50.376;8.742;2023-06-10T06:05:11;19.50;99.90
14349;DHT22;7258;50.376;8.742;2023-06-10T06:07:15;19.50;99.90
14349;DHT22;7258;50.376;8.742;2023-06-10T06:09:18;19.60;99.90
14349;DHT22;7258;50.376;8.742;2023-06-10T06:11:21;19.70;99.90
14349;DHT22;7258;50.376;8.742;2023-06-10T06:13:24;19.90;99.90
14349;DHT22;7258;50.376;8.742;2023-06-10T06:15:27;20.00;99.90
14349;DHT22;7258;50.376;8.742;2023-06-10T06:17:31;20.10;99.90
14349;DHT22;7258;50.376;8.742;2023-06-10T06:19:34;20.20;99.90
14349;DHT22;7258;50.376;8.742;2023-06-10T06:21:37;20.20;99.90
14349;DHT22;7258;50.376;8.742;2023-06-10T06:23:40;20.20;99.90
14349;DHT22;7258;50.376;8.742;2023-06-10T06:25:43;20.30;99.90
14349;DHT22;7258;50.376;8.742;2023-06-10T06:27:47;20.40;99.90
14349;DHT22;7258;50.376;8.742;2023-06-10T06:29:50;20.40;99.90
14349;DHT22;7258;50.376;8.742;2023-06-10T06:31:53;20.50;99.90
14349;DHT22;7258;50.376;8.742;2023-06-10T06:33:57;20.50;99.90
14349;DHT22;7258;50.376;8.742;2023-06-10T06:36:00;20.70;99.90
14349;DHT22;7258;50.376;8.742;2023-06-10T06:38:03;20.80;99.90
14349;DHT22;7258;50.376;8.742;2023-06-10T06:40:07;20.80;99.90
14349;DHT22;7258;50.376;8.742;2023-06-10T06:42:10;20.80;99.90
14349;DHT22;7258;50.376;8.742;2023-06-10T06:44:13;21.00;99.90
14349;DHT22;7258;50.376;8.742;2023-06-10T06:46:16;21.10;99.90
14349;DHT22;7258;50.376;8.742;2023-06-10T06:48:19;21.20;99.80
14349;DHT22;7258;50.376;8.742;2023-06-10T06:50:24;21.20;99.40
14349;DHT22;7258;50.376;8.742;2023-06-10T06:52:27;21.30;99.50
14349;DHT22;7258;50.376;8.742;2023-06-10T06:54:30;21.50;99.50
14349;DHT22;7258;50.376;8.742;2023-06-10T06:56:33;21.70;99.40
14349;DHT22;7258;50.376;8.742;2023-06-10T06:58:35;21.70;99.10
14349;DHT22;7258;50.376;8.742;2023-06-10T07:00:38;21.80;98.80
14349;DHT22;7258;50.376;8.742;2023-06-10T07:02:41;22.00;98.50
14349;DHT22;7258;50.376;8.742;2023-06-10T07:04:44;22.00;98.10
14349;DHT22;7258;50.376;8.742;2023-06-10T07:06:52;22.10;98.30
14349;DHT22;7258;50.376;8.742;2023-06-10T07:08:55;22.30;98.30
14349;DHT22;7258;50.376;8.742;2023-06-10T07:10:58;22.50;98.20
14349;DHT22;7258;50.376;8.742;2023-06-10T07:13:01;22.70;97.80
14349;DHT22;7258;50.376;8.742;2023-06-10T07:15:05;22.80;97.30
14349;DHT22;7258;50.376;8.742;2023-06-10T07:17:08;22.90;97.00
14349;DHT22;7258;50.376;8.742;2023-06-10T07:19:11;22.90;97.30
14349;DHT22;7258;50.376;8.742;2023-06-10T07:21:15;23.00;97.30
14349;DHT22;7258;50.376;8.742;2023-06-10T07:23:19;23.10;97.10
14349;DHT22;7258;50.376;8.742;2023-06-10T07:25:22;23.30;96.90
14349;DHT22;7258;50.376;8.742;2023-06-10T07:27:25;23.30;96.40
14349;DHT22;7258;50.376;8.742;2023-06-10T07:29:28;23.40;96.60
14349;DHT22;7258;50.376;8.742;2023-06-10T07:31:31;23.40;96.40
14349;DHT22;7258;50.376;8.742;2023-06-10T07:33:34;23.50;96.40
14349;DHT22;7258;50.376;8.742;2023-06-10T07:35:38;23.60;96.10
14349;DHT22;7258;50.376;8.742;2023-06-10T07:37:44;23.70;96.40
14349;DHT22;7258;50.376;8.742;2023-06-10T07:39:48;23.70;96.00
14349;DHT22;7258;50.376;8.742;2023-06-10T07:41:51;23.80;95.70
14349;DHT22;7258;50.376;8.742;2023-06-10T07:43:55;23.80;95.60
14349;DHT22;7258;50.376;8.742;2023-06-10T07:45:58;23.80;95.20
14349;DHT22;7258;50.376;8.742;2023-06-10T07:48:01;23.80;95.10
14349;DHT22;7258;50.376;8.742;2023-06-10T07:50:05;23.80;95.50
14349;DHT22;7258;50.376;8.742;2023-06-10T07:52:10;23.90;95.40
14349;DHT22;7258;50.376;8.742;2023-06-10T07:54:13;23.90;95.00
14349;DHT22;7258;50.376;8.742;2023-06-10T07:56:20;24.00;95.10
14349;DHT22;7258;50.376;8.742;2023-06-10T07:58:23;24.00;95.00
14349;DHT22;7258;50.376;8.742;2023-06-10T08:00:26;23.90;95.00
14349;DHT22;7258;50.376;8.742;2023-06-10T08:02:29;24.00;95.20
14349;DHT22;7258;50.376;8.742;2023-06-10T08:04:32;24.10;95.30
14349;DHT22;7258;50.376;8.742;2023-06-10T08:06:36;24.30;94.90
14349;DHT22;7258;50.376;8.742;2023-06-10T08:08:39;24.30;94.40
14349;DHT22;7258;50.376;8.742;2023-06-10T08:10:44;24.50;94.70
14349;DHT22;7258;50.376;8.742;2023-06-10T08:12:48;24.70;94.50
14349;DHT22;7258;50.376;8.742;2023-06-10T08:14:51;24.90;94.40
14349;DHT22;7258;50.376;8.742;2023-06-10T08:16:55;24.90;93.70
14349;DHT22;7258;50.376;8.742;2023-06-10T08:18:58;25.00;93.50
14349;DHT22;7258;50.376;8.742;2023-06-10T08:21:01;25.10;93.70
14349;DHT22;7258;50.376;8.742;2023-06-10T08:23:04;25.20;93.60
14349;DHT22;7258;50.376;8.742;2023-06-10T08:25:08;25.40;93.60
14349;DHT22;7258;50.376;8.742;2023-06-10T08:27:12;25.40;93.60
14349;DHT22;7258;50.376;8.742;2023-06-10T08:29:16;25.60;93.70
14349;DHT22;7258;50.376;8.742;2023-06-10T08:31:19;25.70;92.80
14349;DHT22;7258;50.376;8.742;2023-06-10T08:33:21;25.90;92.50
14349;DHT22;7258;50.376;8.742;2023-06-10T08:35:24;25.90;91.90
14349;DHT22;7258;50.376;8.742;2023-06-10T08:37:29;25.80;91.80
14349;DHT22;7258;50.376;8.742;2023-06-10T08:39:32;25.80;92.10
14349;DHT22;7258;50.376;8.742;2023-06-10T08:41:37;26.00;91.90
14349;DHT22;7258;50.376;8.742;2023-06-10T08:43:45;26.10;92.20
14349;DHT22;7258;50.376;8.742;2023-06-10T08:45:52;26.20;92.30
14349;DHT22;7258;50.376;8.742;2023-06-10T08:47:59;26.30;92.60
14349;DHT22;7258;50.376;8.742;2023-06-10T08:50:04;26.40;92.30
14349;DHT22;7258;50.376;8.742;2023-06-10T08:52:07;26.50;92.10
14349;DHT22;7258;50.376;8.742;2023-06-10T08:54:17;26.60;91.60
14349;DHT22;7258;50.376;8.742;2023-06-10T08:56:21;26.40;91.50
14349;DHT22;7258;50.376;8.742;2023-06-10T08:58:32;26.50;92.10
14349;DHT22;7258;50.376;8.742;2023-06-10T09:00:42;26.70;91.70
14349;DHT22;7258;50.376;8.742;2023-06-10T09:02:48;26.80;90.80
14349;DHT22;7258;50.376;8.742;2023-06-10T09:04:51;26.80;90.80
14349;DHT22;7258;50.376;8.742;2023-06-10T09:06:56;26.90;90.90
14349;DHT22;7258;50.376;8.742;2023-06-10T09:08:59;27.00;91.00
14349;DHT22;7258;50.376;8.742;2023-06-10T09:11:05;27.20;90.30
14349;DHT22;7258;50.376;8.742;2023-06-10T09:13:08;27.30;89.80
14349;DHT22;7258;50.376;8.742;2023-06-10T09:15:11;27.40;89.80
14349;DHT22;7258;50.376;8.742;2023-06-10T09:17:16;27.40;88.80
14349;DHT22;7258;50.376;8.742;2023-06-10T09:19:21;27.60;88.90
14349;DHT22;7258;50.376;8.742;2023-06-10T09:21:24;27.70;87.90
14349;DHT22;7258;50.376;8.742;2023-06-10T09:23:28;27.80;87.00
14349;DHT22;7258;50.376;8.742;2023-06-10T09:25:38;28.00;87.00
14349;DHT22;7258;50.376;8.742;2023-06-10T09:27:45;28.10;87.40
14349;DHT22;7258;50.376;8.742;2023-06-10T09:29:52;28.10;86.60
14349;DHT22;7258;50.376;8.742;2023-06-10T09:31:55;28.20;85.90
14349;DHT22;7258;50.376;8.742;2023-06-10T09:34:06;28.20;87.10
14349;DHT22;7258;50.376;8.742;2023-06-10T09:36:10;28.30;87.30
14349;DHT22;7258;50.376;8.742;2023-06-10T09:38:15;28.30;87.40
14349;DHT22;7258;50.376;8.742;2023-06-10T09:40:22;28.40;87.20
14349;DHT22;7258;50.376;8.742;2023-06-10T09:42:25;28.50;87.80
14349;DHT22;7258;50.376;8.742;2023-06-10T09:44:29;28.70;86.90
14349;DHT22;7258;50.376;8.742;2023-06-10T09:46:32;28.90;86.20
14349;DHT22;7258;50.376;8.742;2023-06-10T09:48:37;29.00;85.20
14349;DHT22;7258;50.376;8.742;2023-06-10T09:50:44;29.10;85.60
14349;DHT22;7258;50.376;8.742;2023-06-10T09:52:48;29.20;84.50
14349;DHT22;7258;50.376;8.742;2023-06-10T09:54:51;29.20;83.30
14349;DHT22;7258;50.376;8.742;2023-06-10T09:56:54;29.10;83.20
14349;DHT22;7258;50.376;8.742;2023-06-10T09:58:58;29.10;82.60
14349;DHT22;7258;50.376;8.742;2023-06-10T10:01:04;29.00;81.80
14349;DHT22;7258;50.376;8.742;2023-06-10T10:03:08;29.10;83.30
14349;DHT22;7258;50.376;8.742;2023-06-10T10:05:12;29.20;83.80
14349;DHT22;7258;50.376;8.742;2023-06-10T10:07:16;29.40;84.00
14349;DHT22;7258;50.376;8.742;2023-06-10T10:09:20;29.50;83.30
14349;DHT22;7258;50.376;8.742;2023-06-10T10:11:24;29.60;80.10
14349;DHT22;7258;50.376;8.742;2023-06-10T10:13:28;29.60;78.40
14349;DHT22;7258;50.376;8.742;2023-06-10T10:15:32;29.60;78.70
14349;DHT22;7258;50.376;8.742;2023-06-10T10:17:41;29.80;80.80
14349;DHT22;7258;50.376;8.742;2023-06-10T10:19:48;29.90;81.50
14349;DHT22;7258;50.376;8.742;2023-06-10T10:21:53;30.00;82.50
14349;DHT22;7258;50.376;8.742;2023-06-10T10:24:01;30.10;79.10
14349;DHT22;7258;50.376;8.742;2023-06-10T10:26:10;30.10;75.40
14349;DHT22;7258;50.376;8.742;2023-06-10T10:28:15;30.20;75.20
14349;DHT22;7258;50.376;8.742;2023-06-10T10:30:21;30.30;74.50
14349;DHT22;7258;50.376;8.742;2023-06-10T10:32:32;30.30;71.70
14349;DHT22;7258;50.376;8.742;2023-06-10T10:34:43;30.30;71.20
14349;DHT22;7258;50.376;8.742;2023-06-10T10:36:49;30.30;72.00
14349;DHT22;7258;50.376;8.742;2023-06-10T10:38:53;30.30;68.50
14349;DHT22;7258;50.376;8.742;2023-06-10T10:40:59;30.10;67.80
14349;DHT22;7258;50.376;8.742;2023-06-10T10:43:04;30.00;67.40
14349;DHT22;7258;50.376;8.742;2023-06-10T10:45:09;30.00;68.30
14349;DHT22;7258;50.376;8.742;2023-06-10T10:47:14;29.90;67.60
14349;DHT22;7258;50.376;8.742;2023-06-10T10:49:18;30.00;67.60
14349;DHT22;7258;50.376;8.742;2023-06-10T10:51:23;29.90;68.30
14349;DHT22;7258;50.376;8.742;2023-06-10T10:53:26;29.90;68.90
14349;DHT22;7258;50.376;8.742;2023-06-10T10:55:29;30.00;69.10
14349;DHT22;7258;50.376;8.742;2023-06-10T10:57:32;30.10;68.60
14349;DHT22;7258;50.376;8.742;2023-06-10T10:59:56;30.10;66.70
14349;DHT22;7258;50.376;8.742;2023-06-10T11:02:01;30.10;66.70
14349;DHT22;7258;50.376;8.742;2023-06-10T11:04:06;30.10;66.90
14349;DHT22;7258;50.376;8.742;2023-06-10T11:06:12;30.20;66.30
14349;DHT22;7258;50.376;8.742;2023-06-10T11:08:45;30.20;65.70
14349;DHT22;7258;50.376;8.742;2023-06-10T11:10:51;30.30;65.60
14349;DHT22;7258;50.376;8.742;2023-06-10T11:12:54;30.30;65.60
14349;DHT22;7258;50.376;8.742;2023-06-10T11:14:59;30.40;66.40
14349;DHT22;7258;50.376;8.742;2023-06-10T11:17:18;30.40;65.30
14349;DHT22;7258;50.376;8.742;2023-06-10T11:19:34;30.50;65.30
14349;DHT22;7258;50.376;8.742;2023-06-10T11:21:58;30.70;63.20
14349;DHT22;7258;50.376;8.742;2023-06-10T11:24:11;30.90;63.40
14349;DHT22;7258;50.376;8.742;2023-06-10T11:26:31;30.90;63.30
14349;DHT22;7258;50.376;8.742;2023-06-10T11:28:36;30.90;63.40
14349;DHT22;7258;50.376;8.742;2023-06-10T11:30:42;31.00;63.40
14349;DHT22;7258;50.376;8.742;2023-06-10T11:32:50;31.00;62.60
14349;DHT22;7258;50.376;8.742;2023-06-10T11:34:54;31.10;60.50
14349;DHT22;7258;50.376;8.742;2023-06-10T11:36:58;30.90;61.70
14349;DHT22;7258;50.376;8.742;2023-06-10T11:39:04;30.80;62.90
14349;DHT22;7258;50.376;8.742;2023-06-10T11:41:07;30.70;63.30
14349;DHT22;7258;50.376;8.742;2023-06-10T11:43:10;30.70;64.70
14349;DHT22;7258;50.376;8.742;2023-06-10T11:45:15;30.70;64.20
14349;DHT22;7258;50.376;8.742;2023-06-10T11:47:21;30.60;65.10
14349;DHT22;7258;50.376;8.742;2023-06-10T11:49:23;30.70;64.70
14349;DHT22;7258;50.376;8.742;2023-06-10T11:51:28;30.70;64.90
14349;DHT22;7258;50.376;8.742;2023-06-10T11:53:31;30.90;65.80
14349;DHT22;7258;50.376;8.742;2023-06-10T11:55:42;30.90;63.00
14349;DHT22;7258;50.376;8.742;2023-06-10T11:57:45;30.80;63.50
14349;DHT22;7258;50.376;8.742;2023-06-10T11:59:48;30.70;63.40
14349;DHT22;7258;50.376;8.742;2023-06-10T12:01:51;30.70;64.90
14349;DHT22;7258;50.376;8.742;2023-06-10T12:03:59;30.70;66.00
14349;DHT22;7258;50.376;8.742;2023-06-10T12:06:05;30.80;64.40
14349;DHT22;7258;50.376;8.742;2023-06-10T12:08:08;30.80;64.90
14349;DHT22;7258;50.376;8.742;2023-06-10T12:10:11;30.90;65.50
14349;DHT22;7258;50.376;8.742;2023-06-10T12:12:28;31.10;65.70
14349;DHT22;7258;50.376;8.742;2023-06-10T12:14:53;31.10;65.10
14349;DHT22;7258;50.376;8.742;2023-06-10T12:16:57;31.20;66.00
14349;DHT22;7258;50.376;8.742;2023-06-10T12:19:03;31.20;65.80
14349;DHT22;7258;50.376;8.742;2023-06-10T12:21:16;31.10;65.30
14349;DHT22;7258;50.376;8.742;2023-06-10T12:23:19;31.10;66.20
14349;DHT22;7258;50.376;8.742;2023-06-10T12:25:26;31.00;66.60
14349;DHT22;7258;50.376;8.742;2023-06-10T12:27:30;31.20;66.10
14349;DHT22;7258;50.376;8.742;2023-06-10T12:29:33;31.30;66.30
14349;DHT22;7258;50.376;8.742;2023-06-10T12:31:55;31.40;66.50
14349;DHT22;7258;50.376;8.742;2023-06-10T12:34:09;31.40;65.80
14349;DHT22;7258;50.376;8.742;2023-06-10T12:36:16;31.30;66.90
14349;DHT22;7258;50.376;8.742;2023-06-10T12:38:23;31.20;66.70
14349;DHT22;7258;50.376;8.742;2023-06-10T12:40:31;31.00;66.60
14349;DHT22;7258;50.376;8.742;2023-06-10T12:42:35;30.90;66.50
14349;DHT22;7258;50.376;8.742;2023-06-10T12:44:39;30.80;66.70
14349;DHT22;7258;50.376;8.742;2023-06-10T12:46:43;30.80;66.80
14349;DHT22;7258;50.376;8.742;2023-06-10T12:48:50;30.80;67.50
14349;DHT22;7258;50.376;8.742;2023-06-10T12:50:58;30.80;68.80
14349;DHT22;7258;50.376;8.742;2023-06-10T12:53:01;31.10;68.40
14349;DHT22;7258;50.376;8.742;2023-06-10T12:55:05;31.10;67.80
14349;DHT22;7258;50.376;8.742;2023-06-10T12:57:08;31.10;68.30
14349;DHT22;7258;50.376;8.742;2023-06-10T12:59:12;31.00;68.00
14349;DHT22;7258;50.376;8.742;2023-06-10T13:01:16;31.10;68.80
14349;DHT22;7258;50.376;8.742;2023-06-10T13:03:19;31.00;68.40
14349;DHT22;7258;50.376;8.742;2023-06-10T13:05:22;31.10;69.20
14349;DHT22;7258;50.376;8.742;2023-06-10T13:07:26;31.20;68.30
14349;DHT22;7258;50.376;8.742;2023-06-10T13:09:29;31.40;68.20
14349;DHT22;7258;50.376;8.742;2023-06-10T13:11:32;31.50;68.00
14349;DHT22;7258;50.376;8.742;2023-06-10T13:13:36;31.70;68.70
14349;DHT22;7258;50.376;8.742;2023-06-10T13:15:40;31.90;66.90
14349;DHT22;7258;50.376;8.742;2023-06-10T13:17:45;31.90;66.80
14349;DHT22;7258;50.376;8.742;2023-06-10T13:19:51;32.00;67.50